sensor_id;sensor_type;location;lat;lon;timestamp;pressure;altitude;pressure_sealevel;temperature;humidity
3544;BME280;1786;52.870;9.578;2022-08-03T00:01:27;100605.94;;;31.88;47.57
3544;BME280;1786;52.870;9.578;2022-08-03T00:03:54;100607.94;;;31.92;47.52
3544;BME280;1786;52.870;9.578;2022-08-03T00:06:20;100597.72;;;31.76;48.35
3544;BME280;1786;52.870;9.578;2022-08-03T00:08:47;100600.34;;;31.83;48.75
3544;BME280;1786;52.870;9.578;2022-08-03T00:11:13;100604.97;;;31.71;49.25
3544;BME280;1786;52.870;9.578;2022-08-03T00:13:40;100599.00;;;31.62;49.50
3544;BME280;1786;52.870;9.578;2022-08-03T00:16:06;100605.44;;;31.56;50.07
3544;BME280;1786;52.870;9.578;2022-08-03T00:18:33;100606.47;;;31.55;50.21
3544;BME280;1786;52.870;9.578;2022-08-03T00:21:02;100588.06;;;31.38;50.17
3544;BME280;1786;52.870;9.578;2022-08-03T00:23:29;100598.13;;;31.38;50.52
3544;BME280;1786;52.870;9.578;2022-08-03T00:26:15;100598.31;;;31.24;50.64
3544;BME280;1786;52.870;9.578;2022-08-03T00:28:42;100591.91;;;31.19;50.21
3544;BME280;1786;52.870;9.578;2022-08-03T00:31:09;100591.28;;;31.05;50.74
3544;BME280;1786;52.870;9.578;2022-08-03T00:33:39;100594.22;;;31.03;50.49
3544;BME280;1786;52.870;9.578;2022-08-03T00:36:26;100589.25;;;31.00;50.78
3544;BME280;1786;52.870;9.578;2022-08-03T00:38:53;100583.50;;;30.90;51.33
3544;BME280;1786;52.870;9.578;2022-08-03T00:41:19;100589.06;;;30.83;51.28
3544;BME280;1786;52.870;9.578;2022-08-03T00:43:46;100582.94;;;30.81;50.63
3544;BME280;1786;52.870;9.578;2022-08-03T00:46:13;100581.50;;;30.67;51.32
3544;BME280;1786;52.870;9.578;2022-08-03T00:48:48;100585.03;;;30.68;51.08
3544;BME280;1786;52.870;9.578;2022-08-03T00:51:14;100589.81;;;30.54;51.20
3544;BME280;1786;52.870;9.578;2022-08-03T00:53:41;100576.78;;;30.56;51.27
3544;BME280;1786;52.870;9.578;2022-08-03T00:56:12;100585.66;;;30.51;51.42
3544;BME280;1786;52.870;9.578;2022-08-03T00:58:39;100584.00;;;30.50;51.64
3544;BME280;1786;52.870;9.578;2022-08-03T01:01:06;100575.28;;;30.41;51.65
3544;BME280;1786;52.870;9.578;2022-08-03T01:03:32;100574.63;;;30.28;52.55
3544;BME280;1786;52.870;9.578;2022-08-03T01:06:06;100569.22;;;30.21;52.59
3544;BME280;1786;52.870;9.578;2022-08-03T01:08:53;100567.09;;;30.23;52.08
3544;BME280;1786;52.870;9.578;2022-08-03T01:11:46;100566.44;;;30.28;51.80
3544;BME280;1786;52.870;9.578;2022-08-03T01:17:09;100572.19;;;30.19;52.18
3544;BME280;1786;52.870;9.578;2022-08-03T01:28:14;100562.78;;;29.97;53.21
3544;BME280;1786;52.870;9.578;2022-08-03T01:30:45;100566.84;;;29.88;52.94
3544;BME280;1786;52.870;9.578;2022-08-03T01:33:21;100571.41;;;29.94;53.12
3544;BME280;1786;52.870;9.578;2022-08-03T01:35:54;100568.69;;;29.94;52.33
3544;BME280;1786;52.870;9.578;2022-08-03T01:38:28;100565.19;;;29.87;52.36
3544;BME280;1786;52.870;9.578;2022-08-03T01:40:56;100569.34;;;29.89;52.70
3544;BME280;1786;52.870;9.578;2022-08-03T01:43:26;100568.06;;;29.92;52.15
3544;BME280;1786;52.870;9.578;2022-08-03T01:46:16;100567.25;;;29.91;52.47
3544;BME280;1786;52.870;9.578;2022-08-03T01:48:45;100567.47;;;29.90;51.88
3544;BME280;1786;52.870;9.578;2022-08-03T01:51:15;100568.53;;;29.89;52.51
3544;BME280;1786;52.870;9.578;2022-08-03T01:53:43;100564.13;;;29.88;52.54
3544;BME280;1786;52.870;9.578;2022-08-03T01:56:11;100572.59;;;29.80;52.71
3544;BME280;1786;52.870;9.578;2022-08-03T01:58:39;100569.03;;;29.79;52.16
3544;BME280;1786;52.870;9.578;2022-08-03T02:01:07;100569.25;;;29.77;52.06
3544;BME280;1786;52.870;9.578;2022-08-03T02:03:37;100559.63;;;29.75;52.72
3544;BME280;1786;52.870;9.578;2022-08-03T02:06:26;100568.31;;;29.65;52.78
3544;BME280;1786;52.870;9.578;2022-08-03T02:09:14;100560.19;;;29.59;52.55
3544;BME280;1786;52.870;9.578;2022-08-03T02:11:44;100557.41;;;29.65;52.77
3544;BME280;1786;52.870;9.578;2022-08-03T02:14:13;100563.75;;;29.59;52.67
3544;BME280;1786;52.870;9.578;2022-08-03T02:16:41;100565.03;;;29.57;52.58
3544;BME280;1786;52.870;9.578;2022-08-03T02:19:10;100561.91;;;29.53;53.19
3544;BME280;1786;52.870;9.578;2022-08-03T02:21:37;100559.91;;;29.42;53.35
3544;BME280;1786;52.870;9.578;2022-08-03T02:24:24;100561.19;;;29.64;52.53
3544;BME280;1786;52.870;9.578;2022-08-03T02:26:53;100556.84;;;29.82;52.49
3544;BME280;1786;52.870;9.578;2022-08-03T02:29:25;100561.09;;;29.77;52.80
3544;BME280;1786;52.870;9.578;2022-08-03T02:32:09;100557.91;;;29.81;52.13
3544;BME280;1786;52.870;9.578;2022-08-03T02:34:39;100551.56;;;29.87;51.74
3544;BME280;1786;52.870;9.578;2022-08-03T02:37:07;100555.22;;;30.54;50.81
3544;BME280;1786;52.870;9.578;2022-08-03T02:39:36;100557.56;;;30.51;51.25
3544;BME280;1786;52.870;9.578;2022-08-03T02:42:07;100551.56;;;30.60;51.01
3544;BME280;1786;52.870;9.578;2022-08-03T02:44:38;100555.91;;;30.80;50.16
3544;BME280;1786;52.870;9.578;2022-08-03T02:47:08;100553.28;;;30.73;50.62
3544;BME280;1786;52.870;9.578;2022-08-03T02:49:37;100549.94;;;30.71;50.12
3544;BME280;1786;52.870;9.578;2022-08-03T02:52:23;100547.44;;;30.88;50.11
3544;BME280;1786;52.870;9.578;2022-08-03T02:54:52;100551.13;;;30.94;50.01
3544;BME280;1786;52.870;9.578;2022-08-03T02:57:21;100549.72;;;31.03;49.64
3544;BME280;1786;52.870;9.578;2022-08-03T02:59:50;100544.38;;;30.96;49.89
3544;BME280;1786;52.870;9.578;2022-08-03T03:02:18;100551.94;;;30.94;49.75
3544;BME280;1786;52.870;9.578;2022-08-03T03:04:46;100548.44;;;31.05;49.75
3544;BME280;1786;52.870;9.578;2022-08-03T03:07:34;100544.03;;;31.04;49.74
3544;BME280;1786;52.870;9.578;2022-08-03T03:10:20;100546.41;;;31.01;49.12
3544;BME280;1786;52.870;9.578;2022-08-03T03:12:50;100548.06;;;31.02;49.58
3544;BME280;1786;52.870;9.578;2022-08-03T03:15:18;100549.63;;;31.10;49.01
3544;BME280;1786;52.870;9.578;2022-08-03T03:17:46;100552.41;;;30.91;50.09
3544;BME280;1786;52.870;9.578;2022-08-03T03:20:14;100548.50;;;30.87;50.16
3544;BME280;1786;52.870;9.578;2022-08-03T03:22:57;100546.47;;;30.82;49.99
3544;BME280;1786;52.870;9.578;2022-08-03T03:25:25;100548.38;;;30.82;49.73
3544;BME280;1786;52.870;9.578;2022-08-03T03:27:52;100546.81;;;30.86;49.41
3544;BME280;1786;52.870;9.578;2022-08-03T03:30:20;100554.19;;;30.86;49.73
3544;BME280;1786;52.870;9.578;2022-08-03T03:32:46;100556.31;;;30.83;49.89
3544;BME280;1786;52.870;9.578;2022-08-03T03:35:14;100556.34;;;30.77;49.95
3544;BME280;1786;52.870;9.578;2022-08-03T03:37:42;100556.13;;;30.78;49.32
3544;BME280;1786;52.870;9.578;2022-08-03T03:40:09;100563.72;;;30.76;49.45
3544;BME280;1786;52.870;9.578;2022-08-03T03:42:36;100551.84;;;30.71;50.07
3544;BME280;1786;52.870;9.578;2022-08-03T03:45:07;100556.09;;;30.67;50.37
3544;BME280;1786;52.870;9.578;2022-08-03T03:47:34;100557.16;;;30.66;50.16
3544;BME280;1786;52.870;9.578;2022-08-03T03:50:03;100560.34;;;30.62;49.86
3544;BME280;1786;52.870;9.578;2022-08-03T03:52:30;100550.34;;;30.56;50.22
3544;BME280;1786;52.870;9.578;2022-08-03T03:54:57;100548.72;;;30.37;50.27
3544;BME280;1786;52.870;9.578;2022-08-03T03:57:27;100550.06;;;30.46;50.24
3544;BME280;1786;52.870;9.578;2022-08-03T03:59:55;100557.22;;;30.59;49.67
3544;BME280;1786;52.870;9.578;2022-08-03T04:02:21;100552.50;;;30.54;49.94
3544;BME280;1786;52.870;9.578;2022-08-03T04:04:48;100557.56;;;30.51;50.12
3544;BME280;1786;52.870;9.578;2022-08-03T04:07:45;100555.50;;;30.46;50.03
3544;BME280;1786;52.870;9.578;2022-08-03T04:10:38;100567.34;;;30.40;49.98
3544;BME280;1786;52.870;9.578;2022-08-03T04:13:33;100552.66;;;30.41;50.77
3544;BME280;1786;52.870;9.578;2022-08-03T04:16:01;100553.31;;;30.36;50.81
3544;BME280;1786;52.870;9.578;2022-08-03T04:18:30;100559.16;;;30.40;50.61
3544;BME280;1786;52.870;9.578;2022-08-03T04:21:01;100553.47;;;30.41;50.67
3544;BME280;1786;52.870;9.578;2022-08-03T04:23:32;100550.53;;;30.43;51.19
3544;BME280;1786;52.870;9.578;2022-08-03T04:26:02;100560.97;;;30.46;50.61
3544;BME280;1786;52.870;9.578;2022-08-03T04:28:30;100563.25;;;30.31;51.37
3544;BME280;1786;52.870;9.578;2022-08-03T04:30:59;100567.91;;;30.24;51.78
3544;BME280;1786;52.870;9.578;2022-08-03T04:33:28;100557.25;;;30.04;52.04
3544;BME280;1786;52.870;9.578;2022-08-03T04:35:59;100565.97;;;30.12;51.96
3544;BME280;1786;52.870;9.578;2022-08-03T04:38:30;100561.25;;;30.01;52.01
3544;BME280;1786;52.870;9.578;2022-08-03T04:40:59;100563.03;;;30.14;51.71
3544;BME280;1786;52.870;9.578;2022-08-03T04:43:27;100562.31;;;29.82;52.67
3544;BME280;1786;52.870;9.578;2022-08-03T04:45:54;100559.47;;;29.70;53.07
3544;BME280;1786;52.870;9.578;2022-08-03T04:48:21;100566.03;;;29.87;52.73
3544;BME280;1786;52.870;9.578;2022-08-03T04:50:48;100568.56;;;29.57;53.21
3544;BME280;1786;52.870;9.578;2022-08-03T04:53:15;100562.22;;;29.63;52.83
3544;BME280;1786;52.870;9.578;2022-08-03T04:55:43;100565.47;;;29.79;52.66
3544;BME280;1786;52.870;9.578;2022-08-03T04:58:10;100566.69;;;30.01;52.64
3544;BME280;1786;52.870;9.578;2022-08-03T05:00:38;100564.69;;;29.96;52.76
3544;BME280;1786;52.870;9.578;2022-08-03T05:03:05;100565.28;;;30.17;51.96
3544;BME280;1786;52.870;9.578;2022-08-03T05:05:51;100567.75;;;30.25;52.28
3544;BME280;1786;52.870;9.578;2022-08-03T05:08:18;100571.69;;;30.29;52.58
3544;BME280;1786;52.870;9.578;2022-08-03T05:10:53;100577.09;;;30.11;52.04
3544;BME280;1786;52.870;9.578;2022-08-03T05:13:20;100569.53;;;30.31;51.93
3544;BME280;1786;52.870;9.578;2022-08-03T05:15:46;100569.72;;;30.85;50.98
3544;BME280;1786;52.870;9.578;2022-08-03T05:18:14;100571.09;;;31.06;50.74
3544;BME280;1786;52.870;9.578;2022-08-03T05:20:41;100575.78;;;31.29;50.76
3544;BME280;1786;52.870;9.578;2022-08-03T05:23:07;100576.97;;;31.33;51.88
3544;BME280;1786;52.870;9.578;2022-08-03T05:25:34;100587.75;;;32.17;50.17
3544;BME280;1786;52.870;9.578;2022-08-03T05:28:00;100585.13;;;33.66;46.84
3544;BME280;1786;52.870;9.578;2022-08-03T05:30:27;100591.94;;;35.71;44.62
3544;BME280;1786;52.870;9.578;2022-08-03T05:33:01;100606.06;;;37.27;41.51
3544;BME280;1786;52.870;9.578;2022-08-03T05:35:28;100616.22;;;39.28;39.96
3544;BME280;1786;52.870;9.578;2022-08-03T05:38:15;100625.66;;;41.05;37.33
3544;BME280;1786;52.870;9.578;2022-08-03T05:40:54;100625.78;;;42.26;36.38
3544;BME280;1786;52.870;9.578;2022-08-03T05:43:40;100628.66;;;42.63;34.58
3544;BME280;1786;52.870;9.578;2022-08-03T05:46:07;100626.94;;;43.48;33.77
3544;BME280;1786;52.870;9.578;2022-08-03T05:48:38;100629.72;;;43.71;33.32
3544;BME280;1786;52.870;9.578;2022-08-03T05:51:05;100631.88;;;44.62;32.90
3544;BME280;1786;52.870;9.578;2022-08-03T05:53:33;100634.19;;;45.56;32.08
3544;BME280;1786;52.870;9.578;2022-08-03T05:56:00;100635.53;;;46.65;31.38
3544;BME280;1786;52.870;9.578;2022-08-03T05:58:50;100629.72;;;47.66;30.74
3544;BME280;1786;52.870;9.578;2022-08-03T06:01:18;100633.63;;;48.11;29.75
3544;BME280;1786;52.870;9.578;2022-08-03T06:03:48;100645.88;;;48.68;29.42
3544;BME280;1786;52.870;9.578;2022-08-03T06:06:15;100634.47;;;49.29;28.71
3544;BME280;1786;52.870;9.578;2022-08-03T06:08:43;100641.53;;;49.39;29.26
3544;BME280;1786;52.870;9.578;2022-08-03T06:11:10;100649.75;;;49.60;28.46
3544;BME280;1786;52.870;9.578;2022-08-03T06:13:37;100654.72;;;50.30;28.12
3544;BME280;1786;52.870;9.578;2022-08-03T06:16:04;100645.41;;;50.42;28.00
3544;BME280;1786;52.870;9.578;2022-08-03T06:18:31;100652.09;;;51.08;26.98
3544;BME280;1786;52.870;9.578;2022-08-03T06:20:57;100654.13;;;51.30;27.53
3544;BME280;1786;52.870;9.578;2022-08-03T06:23:35;100650.28;;;50.80;27.32
3544;BME280;1786;52.870;9.578;2022-08-03T06:26:22;100652.06;;;51.70;27.32
3544;BME280;1786;52.870;9.578;2022-08-03T06:28:49;100650.88;;;51.94;26.40
3544;BME280;1786;52.870;9.578;2022-08-03T06:31:21;100653.00;;;51.35;27.44
3544;BME280;1786;52.870;9.578;2022-08-03T06:33:49;100651.94;;;51.40;27.52
3544;BME280;1786;52.870;9.578;2022-08-03T06:36:36;100659.34;;;51.09;26.96
3544;BME280;1786;52.870;9.578;2022-08-03T06:39:04;100657.06;;;51.15;27.85
3544;BME280;1786;52.870;9.578;2022-08-03T06:41:33;100649.38;;;51.54;27.12
3544;BME280;1786;52.870;9.578;2022-08-03T06:44:10;100661.41;;;52.47;27.11
3544;BME280;1786;52.870;9.578;2022-08-03T06:46:37;100659.34;;;52.44;25.60
3544;BME280;1786;52.870;9.578;2022-08-03T06:49:04;100656.84;;;52.65;26.04
3544;BME280;1786;52.870;9.578;2022-08-03T06:51:30;100663.44;;;52.23;26.45
3544;BME280;1786;52.870;9.578;2022-08-03T06:54:17;100660.69;;;52.04;27.04
3544;BME280;1786;52.870;9.578;2022-08-03T06:56:44;100664.06;;;52.09;27.11
3544;BME280;1786;52.870;9.578;2022-08-03T06:59:11;100661.88;;;52.79;26.62
3544;BME280;1786;52.870;9.578;2022-08-03T07:01:57;100663.16;;;53.15;25.61
3544;BME280;1786;52.870;9.578;2022-08-03T07:04:24;100674.28;;;53.05;25.84
3544;BME280;1786;52.870;9.578;2022-08-03T07:06:50;100669.50;;;52.48;26.02
3544;BME280;1786;52.870;9.578;2022-08-03T07:09:17;100664.34;;;51.81;26.34
3544;BME280;1786;52.870;9.578;2022-08-03T07:11:44;100668.84;;;51.63;27.32
3544;BME280;1786;52.870;9.578;2022-08-03T07:14:10;100675.44;;;50.73;27.54
3544;BME280;1786;52.870;9.578;2022-08-03T07:16:37;100667.19;;;50.13;27.81
3544;BME280;1786;52.870;9.578;2022-08-03T07:19:04;100666.75;;;50.78;27.49
3544;BME280;1786;52.870;9.578;2022-08-03T07:21:30;100670.09;;;51.42;27.18
3544;BME280;1786;52.870;9.578;2022-08-03T07:23:57;100672.91;;;51.42;27.84
3544;BME280;1786;52.870;9.578;2022-08-03T07:26:23;100678.81;;;51.18;27.44
3544;BME280;1786;52.870;9.578;2022-08-03T07:28:50;100676.16;;;51.25;27.70
3544;BME280;1786;52.870;9.578;2022-08-03T07:31:16;100675.59;;;51.58;27.45
3544;BME280;1786;52.870;9.578;2022-08-03T07:33:43;100681.63;;;52.03;27.11
3544;BME280;1786;52.870;9.578;2022-08-03T07:36:09;100672.16;;;51.68;27.42
3544;BME280;1786;52.870;9.578;2022-08-03T07:38:36;100680.84;;;52.02;27.23
3544;BME280;1786;52.870;9.578;2022-08-03T07:41:03;100682.63;;;52.14;26.43
3544;BME280;1786;52.870;9.578;2022-08-03T07:43:29;100686.41;;;51.99;26.88
3544;BME280;1786;52.870;9.578;2022-08-03T07:45:56;100676.06;;;52.06;27.01
3544;BME280;1786;52.870;9.578;2022-08-03T07:48:22;100675.09;;;51.33;28.01
3544;BME280;1786;52.870;9.578;2022-08-03T07:50:49;100684.72;;;50.74;27.50
3544;BME280;1786;52.870;9.578;2022-08-03T07:53:16;100680.19;;;51.04;28.26
3544;BME280;1786;52.870;9.578;2022-08-03T07:55:42;100675.84;;;50.72;27.56
3544;BME280;1786;52.870;9.578;2022-08-03T07:58:10;100669.97;;;50.45;27.63
3544;BME280;1786;52.870;9.578;2022-08-03T08:00:38;100674.09;;;49.56;28.87
3544;BME280;1786;52.870;9.578;2022-08-03T08:03:04;100666.75;;;49.51;28.82
3544;BME280;1786;52.870;9.578;2022-08-03T08:05:31;100674.03;;;49.12;28.90
3544;BME280;1786;52.870;9.578;2022-08-03T08:07:59;100679.16;;;49.78;28.53
3544;BME280;1786;52.870;9.578;2022-08-03T08:10:26;100669.06;;;49.05;29.00
3544;BME280;1786;52.870;9.578;2022-08-03T08:12:53;100667.56;;;48.95;28.94
3544;BME280;1786;52.870;9.578;2022-08-03T08:15:20;100666.72;;;48.30;28.95
3544;BME280;1786;52.870;9.578;2022-08-03T08:17:50;100662.00;;;48.71;29.79
3544;BME280;1786;52.870;9.578;2022-08-03T08:20:22;100671.09;;;48.80;29.70
3544;BME280;1786;52.870;9.578;2022-08-03T08:23:00;100661.06;;;48.54;29.57
3544;BME280;1786;52.870;9.578;2022-08-03T08:25:29;100660.06;;;48.59;29.33
3544;BME280;1786;52.870;9.578;2022-08-03T08:27:57;100661.97;;;47.85;30.73
3544;BME280;1786;52.870;9.578;2022-08-03T08:30:47;100663.44;;;48.40;30.16
3544;BME280;1786;52.870;9.578;2022-08-03T08:33:14;100656.19;;;48.27;29.40
3544;BME280;1786;52.870;9.578;2022-08-03T08:35:49;100653.91;;;48.82;30.39
3544;BME280;1786;52.870;9.578;2022-08-03T08:38:16;100655.63;;;48.99;29.65
3544;BME280;1786;52.870;9.578;2022-08-03T08:40:43;100648.56;;;48.15;29.62
3544;BME280;1786;52.870;9.578;2022-08-03T08:43:09;100660.38;;;48.45;29.83
3544;BME280;1786;52.870;9.578;2022-08-03T08:45:36;100660.59;;;48.16;30.00
3544;BME280;1786;52.870;9.578;2022-08-03T08:48:04;100656.44;;;47.31;30.33
3544;BME280;1786;52.870;9.578;2022-08-03T08:50:35;100653.38;;;46.22;31.26
3544;BME280;1786;52.870;9.578;2022-08-03T08:53:06;100646.19;;;45.48;32.14
3544;BME280;1786;52.870;9.578;2022-08-03T08:55:45;100644.09;;;45.01;32.41
3544;BME280;1786;52.870;9.578;2022-08-03T08:58:29;100645.88;;;45.14;33.30
3544;BME280;1786;52.870;9.578;2022-08-03T09:00:56;100647.03;;;45.05;32.69
3544;BME280;1786;52.870;9.578;2022-08-03T09:03:23;100647.47;;;44.72;33.32
3544;BME280;1786;52.870;9.578;2022-08-03T09:05:58;100652.91;;;44.86;33.22
3544;BME280;1786;52.870;9.578;2022-08-03T09:08:25;100646.06;;;45.18;33.45
3544;BME280;1786;52.870;9.578;2022-08-03T09:10:51;100649.81;;;45.40;32.27
3544;BME280;1786;52.870;9.578;2022-08-03T09:13:18;100639.00;;;44.37;33.34
3544;BME280;1786;52.870;9.578;2022-08-03T09:15:45;100638.91;;;44.51;33.43
3544;BME280;1786;52.870;9.578;2022-08-03T09:18:30;100639.56;;;44.65;32.89
3544;BME280;1786;52.870;9.578;2022-08-03T09:21:24;100633.53;;;44.72;32.67
3544;BME280;1786;52.870;9.578;2022-08-03T09:24:01;100635.50;;;44.71;33.90
3544;BME280;1786;52.870;9.578;2022-08-03T09:26:33;100640.97;;;44.94;33.40
3544;BME280;1786;52.870;9.578;2022-08-03T09:29:04;100635.88;;;44.30;34.57
3544;BME280;1786;52.870;9.578;2022-08-03T09:31:41;100635.03;;;44.96;33.35
3544;BME280;1786;52.870;9.578;2022-08-03T09:34:13;100634.72;;;44.97;33.05
3544;BME280;1786;52.870;9.578;2022-08-03T09:36:44;100635.84;;;45.13;33.43
3544;BME280;1786;52.870;9.578;2022-08-03T09:39:15;100642.41;;;45.52;32.24
3544;BME280;1786;52.870;9.578;2022-08-03T09:41:45;100636.66;;;45.58;33.49
3544;BME280;1786;52.870;9.578;2022-08-03T09:44:13;100630.91;;;45.45;33.08
3544;BME280;1786;52.870;9.578;2022-08-03T09:46:53;100636.88;;;44.91;33.23
3544;BME280;1786;52.870;9.578;2022-08-03T09:49:21;100632.25;;;44.29;33.57
3544;BME280;1786;52.870;9.578;2022-08-03T09:51:48;100628.50;;;44.25;33.58
3544;BME280;1786;52.870;9.578;2022-08-03T09:54:35;100624.53;;;44.18;34.16
3544;BME280;1786;52.870;9.578;2022-08-03T09:57:02;100619.50;;;44.37;33.88
3544;BME280;1786;52.870;9.578;2022-08-03T09:59:30;100624.47;;;44.58;34.09
3544;BME280;1786;52.870;9.578;2022-08-03T10:01:59;100623.81;;;44.52;33.43
3544;BME280;1786;52.870;9.578;2022-08-03T10:04:26;100622.72;;;45.05;33.56
3544;BME280;1786;52.870;9.578;2022-08-03T10:07:02;100622.03;;;45.43;32.62
3544;BME280;1786;52.870;9.578;2022-08-03T10:09:29;100621.56;;;44.71;33.62
3544;BME280;1786;52.870;9.578;2022-08-03T10:11:56;100623.72;;;45.01;33.40
3544;BME280;1786;52.870;9.578;2022-08-03T10:14:23;100623.56;;;45.32;32.29
3544;BME280;1786;52.870;9.578;2022-08-03T10:16:51;100624.53;;;45.19;32.77
3544;BME280;1786;52.870;9.578;2022-08-03T10:19:18;100616.81;;;45.33;32.30
3544;BME280;1786;52.870;9.578;2022-08-03T10:21:54;100626.50;;;45.09;33.09
3544;BME280;1786;52.870;9.578;2022-08-03T10:24:27;100621.56;;;45.41;33.09
3544;BME280;1786;52.870;9.578;2022-08-03T10:27:05;100606.00;;;44.88;32.95
3544;BME280;1786;52.870;9.578;2022-08-03T10:29:37;100603.00;;;44.49;33.59
3544;BME280;1786;52.870;9.578;2022-08-03T10:32:21;100600.88;;;44.46;34.40
3544;BME280;1786;52.870;9.578;2022-08-03T10:34:53;100607.19;;;44.29;33.50
3544;BME280;1786;52.870;9.578;2022-08-03T10:37:29;100606.44;;;44.46;33.54
3544;BME280;1786;52.870;9.578;2022-08-03T10:39:59;100606.81;;;44.80;34.13
3544;BME280;1786;52.870;9.578;2022-08-03T10:42:27;100596.94;;;43.99;34.83
3544;BME280;1786;52.870;9.578;2022-08-03T10:45:03;100614.53;;;44.83;33.53
3544;BME280;1786;52.870;9.578;2022-08-03T10:47:31;100604.38;;;44.87;33.51
3544;BME280;1786;52.870;9.578;2022-08-03T10:49:58;100610.28;;;45.29;33.55
3544;BME280;1786;52.870;9.578;2022-08-03T10:52:25;100607.94;;;45.40;32.67
3544;BME280;1786;52.870;9.578;2022-08-03T10:55:00;100605.03;;;44.84;32.93
3544;BME280;1786;52.870;9.578;2022-08-03T10:57:47;100609.53;;;44.45;33.10
3544;BME280;1786;52.870;9.578;2022-08-03T11:00:20;100597.16;;;44.95;33.93
3544;BME280;1786;52.870;9.578;2022-08-03T11:03:09;100595.50;;;44.85;33.25
3544;BME280;1786;52.870;9.578;2022-08-03T11:05:39;100596.75;;;43.64;34.04
3544;BME280;1786;52.870;9.578;2022-08-03T11:10:53;100596.78;;;44.61;34.26
3544;BME280;1786;52.870;9.578;2022-08-03T11:13:23;100599.19;;;44.28;34.00
3544;BME280;1786;52.870;9.578;2022-08-03T11:15:52;100589.72;;;44.46;33.83
3544;BME280;1786;52.870;9.578;2022-08-03T11:18:28;100600.06;;;44.72;33.87
3544;BME280;1786;52.870;9.578;2022-08-03T11:20:57;100595.84;;;44.09;33.98
3544;BME280;1786;52.870;9.578;2022-08-03T11:26:28;100582.47;;;43.97;34.79
3544;BME280;1786;52.870;9.578;2022-08-03T11:29:27;100583.38;;;44.15;32.85
3544;BME280;1786;52.870;9.578;2022-08-03T11:31:54;100584.66;;;44.48;33.44
3544;BME280;1786;52.870;9.578;2022-08-03T11:34:21;100592.56;;;44.90;33.09
3544;BME280;1786;52.870;9.578;2022-08-03T11:37:21;100589.75;;;44.64;33.72
3544;BME280;1786;52.870;9.578;2022-08-03T11:39:53;100592.63;;;45.54;33.33
3544;BME280;1786;52.870;9.578;2022-08-03T11:44:54;100598.97;;;44.16;34.10
3544;BME280;1786;52.870;9.578;2022-08-03T11:47:23;100583.19;;;44.95;33.42
3544;BME280;1786;52.870;9.578;2022-08-03T11:49:56;100588.28;;;45.19;33.41
3544;BME280;1786;52.870;9.578;2022-08-03T11:52:25;100586.31;;;44.93;33.52
3544;BME280;1786;52.870;9.578;2022-08-03T11:54:54;100588.91;;;45.16;33.35
3544;BME280;1786;52.870;9.578;2022-08-03T11:57:30;100585.75;;;45.52;33.59
3544;BME280;1786;52.870;9.578;2022-08-03T12:02:55;100585.19;;;45.76;32.60
3544;BME280;1786;52.870;9.578;2022-08-03T12:05:48;100584.50;;;45.79;33.14
3544;BME280;1786;52.870;9.578;2022-08-03T12:08:32;100585.63;;;45.31;32.31
3544;BME280;1786;52.870;9.578;2022-08-03T12:11:02;100588.28;;;45.01;32.17
3544;BME280;1786;52.870;9.578;2022-08-03T12:13:42;100577.94;;;44.58;34.02
3544;BME280;1786;52.870;9.578;2022-08-03T12:16:30;100575.81;;;45.25;33.32
3544;BME280;1786;52.870;9.578;2022-08-03T12:19:04;100572.34;;;44.67;33.68
3544;BME280;1786;52.870;9.578;2022-08-03T12:21:32;100567.91;;;44.40;33.93
3544;BME280;1786;52.870;9.578;2022-08-03T12:24:03;100571.03;;;44.47;33.56
3544;BME280;1786;52.870;9.578;2022-08-03T12:26:42;100563.25;;;44.26;33.79
3544;BME280;1786;52.870;9.578;2022-08-03T12:29:21;100564.53;;;44.03;34.35
3544;BME280;1786;52.870;9.578;2022-08-03T12:31:48;100554.06;;;44.17;33.79
3544;BME280;1786;52.870;9.578;2022-08-03T12:34:14;100566.16;;;44.13;34.71
3544;BME280;1786;52.870;9.578;2022-08-03T12:36:52;100562.28;;;43.51;34.41
3544;BME280;1786;52.870;9.578;2022-08-03T12:39:23;100561.94;;;43.75;34.03
3544;BME280;1786;52.870;9.578;2022-08-03T12:41:54;100558.66;;;44.13;33.36
3544;BME280;1786;52.870;9.578;2022-08-03T12:44:34;100557.53;;;44.23;34.60
3544;BME280;1786;52.870;9.578;2022-08-03T12:47:03;100562.00;;;44.50;32.83
3544;BME280;1786;52.870;9.578;2022-08-03T12:49:50;100556.75;;;44.40;33.09
3544;BME280;1786;52.870;9.578;2022-08-03T12:52:18;100564.13;;;44.70;33.05
3544;BME280;1786;52.870;9.578;2022-08-03T12:54:56;100552.72;;;44.06;33.29
3544;BME280;1786;52.870;9.578;2022-08-03T12:57:23;100542.81;;;43.51;34.81
3544;BME280;1786;52.870;9.578;2022-08-03T12:59:50;100552.31;;;44.47;33.11
3544;BME280;1786;52.870;9.578;2022-08-03T13:02:22;100548.50;;;44.17;33.38
3544;BME280;1786;52.870;9.578;2022-08-03T13:04:51;100555.28;;;44.77;33.56
3544;BME280;1786;52.870;9.578;2022-08-03T13:07:19;100553.34;;;44.95;32.95
3544;BME280;1786;52.870;9.578;2022-08-03T13:09:51;100559.72;;;45.22;33.08
3544;BME280;1786;52.870;9.578;2022-08-03T13:12:22;100554.47;;;44.77;31.79
3544;BME280;1786;52.870;9.578;2022-08-03T13:14:54;100547.75;;;44.52;32.56
3544;BME280;1786;52.870;9.578;2022-08-03T13:17:21;100553.34;;;44.78;32.29
3544;BME280;1786;52.870;9.578;2022-08-03T13:19:48;100550.38;;;44.39;33.78
3544;BME280;1786;52.870;9.578;2022-08-03T13:22:16;100549.19;;;44.40;33.25
3544;BME280;1786;52.870;9.578;2022-08-03T13:24:45;100556.09;;;44.60;32.94
3544;BME280;1786;52.870;9.578;2022-08-03T13:27:13;100546.28;;;45.06;31.89
3544;BME280;1786;52.870;9.578;2022-08-03T13:29:59;100556.22;;;45.33;32.16
3544;BME280;1786;52.870;9.578;2022-08-03T13:32:26;100548.25;;;45.70;31.98
3544;BME280;1786;52.870;9.578;2022-08-03T13:34:53;100553.31;;;45.12;33.51
3544;BME280;1786;52.870;9.578;2022-08-03T13:37:20;100548.22;;;45.32;32.34
3544;BME280;1786;52.870;9.578;2022-08-03T13:39:47;100544.06;;;45.38;33.11
3544;BME280;1786;52.870;9.578;2022-08-03T13:42:30;100543.19;;;45.64;32.87
3544;BME280;1786;52.870;9.578;2022-08-03T13:44:58;100545.94;;;46.11;31.53
3544;BME280;1786;52.870;9.578;2022-08-03T13:47:25;100539.50;;;46.61;31.12
3544;BME280;1786;52.870;9.578;2022-08-03T13:49:52;100540.41;;;46.23;31.63
3544;BME280;1786;52.870;9.578;2022-08-03T13:52:32;100532.16;;;46.27;31.56
3544;BME280;1786;52.870;9.578;2022-08-03T13:55:01;100531.13;;;46.40;31.38